ADDS METAR Data INFO
IDs: Format: Raw Decoded Include TAF

Data at: 0214 UTC 18 Jan 2018

KLUL 180155Z AUTO 35003KT 10SM CLR M05/M12 A3061 RMK AO2 T10471122
KLUL 180135Z AUTO 35004KT 10SM CLR M04/M12 A3061 RMK AO2 T10421122
KLUL 180115Z AUTO 33003KT 10SM CLR M05/M12 A3060 RMK AO2 T10461120
KLUL 180055Z AUTO 35003KT 10SM CLR M04/M12 A3060 RMK AO2 T10361122
KLUL 180035Z AUTO 35004KT 10SM CLR M04/M12 A3060 RMK AO2 T10361122
KLUL 180015Z AUTO 01005KT 10SM CLR M03/M12 A3060 RMK AO2 T10301124
KLUL 172355Z AUTO 01004KT 10SM CLR M03/M12 A3059 RMK AO2 T10271124
KLUL 172335Z AUTO 01003KT 10SM CLR M02/M12 A3060 RMK AO2 T10241122
KLUL 172315Z AUTO 01006KT 10SM CLR M02/M12 A3059 RMK AO2 T10171125
KLUL 172255Z AUTO 01008KT 10SM CLR M01/M12 A3060 RMK AO2 T10121123
KLUL 172235Z AUTO 36009KT 10SM CLR M01/M12 A3060 RMK AO2 T10091117
KLUL 172215Z AUTO 36009G14KT 10SM CLR M01/M12 A3060 RMK AO2 T10091120
KLUL 172155Z AUTO 36007KT 10SM CLR M01/M12 A3060 RMK AO2 T10061118
KLUL 172135Z AUTO 36008KT CLR M01/M12 A3060 RMK AO2 T10071121
KLUL 172115Z AUTO 34013G17KT CLR M01/M12 A3060 RMK AO2 T10071117
KLUL 172055Z AUTO 36011G16KT CLR M01/M11 A3060 RMK AO2 T10081112
KLUL 172035Z AUTO 36011G16KT CLR M01/M11 A3059 RMK AO2 T10101112
KLUL 172015Z AUTO 35009G14KT CLR M01/M11 A3060 RMK AO2 T10101106
KLUL 171955Z AUTO 02011KT CLR M02/M12 A3060 RMK AO2 T10161118
KLUL 171935Z AUTO 02011G17KT CLR M02/M12 A3061 RMK AO2 T10191118
KLUL 171915Z AUTO 03013G18KT CLR M02/M12 A3061 RMK AO2 T10251120
KLUL 171855Z AUTO 01008KT CLR M03/M12 A3062 RMK AO2 T10261120
KLUL 171835Z AUTO 02008KT CLR M03/M12 A3064 RMK AO2 T10291120
KLUL 171815Z AUTO 02012G19KT 10SM CLR M04/M13 A3065 RMK AO2 T10401129
KLUL 171755Z AUTO 01010G18KT 10SM CLR M04/M13 A3067 RMK AO2 T10421129
KLUL 171735Z AUTO 35011G16KT 340V040 CLR M05/M13 A3068 RMK AO2 T10501132
KLUL 171715Z AUTO 02009KT 10SM CLR M06/M14 A3069 RMK AO2 T10571136
KLUL 171655Z AUTO 02011G17KT 10SM CLR M06/M14 A3070 RMK AO2 T10651137
KLUL 171635Z AUTO 02011G14KT 350V050 10SM CLR M07/M14 A3070 RMK AO2 T10741145
KLUL 171615Z AUTO 36009G17KT 10SM CLR M08/M15 A3071 RMK AO2 T10781147
KLUL 171555Z AUTO 36010KT 10SM CLR M08/M15 A3071 RMK AO2 T10841147
KLUL 171535Z AUTO 36009G17KT 340V040 10SM CLR M09/M15 A3070 RMK AO2 T10921155
KLUL 171515Z AUTO 02008G15KT 10SM CLR M10/M16 A3070 RMK AO2 T10971159
KLUL 171455Z AUTO 02012KT 10SM CLR M10/M16 A3069 RMK AO2 T11031164
KLUL 171435Z AUTO 01010G18KT 10SM CLR M11/M17 A3067 RMK AO2 T11081167
KLUL 171415Z AUTO 36007G15KT 10SM CLR M11/M17 A3067 RMK AO2 T11121168
KLUL 171355Z AUTO 36008KT 10SM CLR M12/M17 A3066 RMK AO2 T11171167
KLUL 171335Z AUTO 35007KT 10SM CLR M12/M17 A3066 RMK AO2 T11201166
KLUL 171315Z AUTO 36007KT 10SM CLR M12/M17 A3065 RMK AO2 T11201166
KLUL 171255Z AUTO 35007KT 10SM CLR M12/M17 A3065 RMK AO2 T11211166
KLUL 171235Z AUTO 34005KT 10SM CLR M12/M17 A3065 RMK AO2 T11211166
KLUL 171215Z AUTO 35006KT 10SM CLR M12/M17 A3064 RMK AO2 T11201166
KLUL 171155Z AUTO 35007KT 10SM CLR M12/M16 A3063 RMK AO2 T11171165
KLUL 171135Z AUTO 35008KT 10SM CLR M12/M16 A3062 RMK AO2 T11171165
KLUL 171115Z AUTO 35008KT 10SM CLR M11/M16 A3062 RMK AO2 T11151165
KLUL 171055Z AUTO 33009KT 10SM CLR M11/M16 A3062 RMK AO2 T11131161
KLUL 171035Z AUTO 35007KT 10SM CLR M11/M16 A3062 RMK AO2 T11101160
KLUL 171015Z AUTO 35008KT 10SM CLR M11/M16 A3062 RMK AO2 T11081160
KLUL 170955Z AUTO 35007KT 10SM CLR M10/M15 A3061 RMK AO2 T11051155
KLUL 170935Z AUTO 36006KT 10SM CLR M10/M15 A3060 RMK AO2 T11041152
KLUL 170915Z AUTO 36007G14KT 10SM CLR M10/M15 A3061 RMK AO2 T11001152
KLUL 170855Z AUTO 35008G14KT 10SM CLR M10/M14 A3060 RMK AO2 T10961145
KLUL 170835Z AUTO 35008KT 10SM CLR M09/M14 A3060 RMK AO2 T10911140
KLUL 170815Z AUTO 34010KT 10SM CLR M09/M13 A3060 RMK AO2 T10861135
KLUL 170755Z AUTO 33014KT 10SM CLR M08/M13 A3060 RMK AO2 T10791130
KLUL 170735Z AUTO 33012KT 10SM CLR M08/M12 A3060 RMK AO2 T10761124
KLUL 170715Z AUTO 34009KT 10SM CLR M07/M12 A3058 RMK AO2 T10721121
KLUL 170655Z AUTO 32012KT 10SM SCT026 SCT120 M07/M12 A3059 RMK AO2 T10671116
KLUL 170635Z AUTO 34011G17KT 10SM BKN024 BKN120 M06/M11 A3058 RMK AO2 T10641115
KLUL 170615Z AUTO 33012KT 10SM OVC024 M06/M11 A3058 RMK AO2 T10611110
KLUL 170555Z AUTO 32012G15KT 10SM OVC024 M06/M10 A3058 RMK AO2 T10561100
KLUL 170535Z AUTO 34009KT 10SM OVC024 M05/M10 A3058 RMK AO2 T10551101
KLUL 170515Z AUTO 33011G14KT 10SM BKN024 BKN050 OVC060 M05/M10 A3059 RMK AO2 T10521098
KLUL 170455Z AUTO 35007KT 10SM BKN060 OVC070 M05/M10 A3058 RMK AO2 T10511099
KLUL 170435Z AUTO 35007KT 10SM SCT044 BKN060 OVC070 M05/M09 A3058 RMK AO2 T10521095
KLUL 170415Z AUTO 34011G14KT 10SM BKN060 OVC070 M05/M09 A3060 RMK AO2 T10501091
KLUL 170355Z AUTO 34008KT 10SM SCT009 BKN029 OVC060 M05/M08 A3058 RMK AO2 T10541079
KLUL 170335Z AUTO 35007KT 5SM OVC012 M05/M06 A3057 RMK AO2 T10551062
KLUL 170315Z AUTO 34008KT 5SM OVC012 M05/M06 A3058 RMK AO2 T10531063
KLUL 170255Z AUTO 35005KT 5SM OVC012 M05/M06 A3058 RMK AO2 T10521059
KLUL 170235Z AUTO 35007G14KT 5SM OVC012 M05/M06 A3058 RMK AO2 T10511064
KLUL 170215Z AUTO 34011G17KT 3SM OVC010 M05/M06 A3058 RMK AO2 T10511061
KLUL 170155Z AUTO 35011KT 4SM OVC012 M05/M06 A3057 RMK AO2 T10471058
KLUL 170135Z AUTO 34011KT 5SM BKN012 BKN020 OVC024 M04/M05 A3056 RMK AO2 T10431053
KLUL 170115Z AUTO 35008G14KT 7SM SCT010 BKN022 OVC029 M04/M06 A3055 RMK AO2 T10411056
KLUL 170055Z AUTO 35010G14KT 5SM BKN012 OVC028 M04/M05 A3055 RMK AO2 T10381053
KLUL 170035Z AUTO 35010G18KT 7SM BKN012 BKN018 OVC027 M04/M06 A3055 RMK AO2 T10361056
KLUL 170015Z AUTO 34011G14KT 7SM OVC012 M03/M05 A3055 RMK AO2 T10301046
KLUL 162355Z AUTO 35008KT 7SM SCT009 BKN012 OVC032 M03/M04 A3054 RMK AO2 T10301040
KLUL 162335Z AUTO 36009KT 4SM OVC010 M03/M03 A3053 RMK AO2 T10271034
KLUL 162315Z AUTO 35005KT 4SM SCT010 BKN046 OVC060 M02/M04 A3053 RMK AO2 T10251041
KLUL 162255Z AUTO 01008KT 5SM SCT015 OVC050 M02/M05 A3053 RMK AO2 T10221051
KLUL 162235Z AUTO 35009G16KT 4SM BKN017 BKN021 OVC050 M02/M05 A3053 RMK AO2 T10201053
KLUL 162215Z AUTO 35010KT 10SM OVC017 M01/M05 A3053 RMK AO2 T10151054
KLUL 162155Z AUTO 34013KT 10SM OVC017 M01/M05 A3051 RMK AO2 T10101047
KLUL 162135Z AUTO 34010KT 10SM BKN017 OVC041 M01/M05 A3050 RMK AO2 T10061048
KLUL 162115Z AUTO 35009G16KT 10SM OVC017 M01/M05 A3050 RMK AO2 T10071050
KLUL 162055Z AUTO 35011G16KT 10SM BKN017 OVC033 00/M04 A3049 RMK AO2 T10031042
KLUL 162035Z AUTO 35009G14KT 10SM BKN017 BKN035 OVC048 00/M04 A3049 RMK AO2 T10011044
KLUL 162015Z AUTO 36011G15KT 10SM BKN022 OVC035 00/M04 A3049 RMK AO2 T00011045
KLUL 161955Z AUTO 35013KT 10SM BKN024 OVC055 01/M04 A3050 RMK AO2 T00051041
KLUL 161935Z AUTO 36010G18KT 10SM OVC055 01/M05 A3049 RMK AO2 T00111047
KLUL 161915Z AUTO 36012KT 10SM SCT023 OVC055 02/M04 A3049 RMK AO2 T00151045
KLUL 161855Z AUTO 33011KT BKN023 OVC036 02/M04 A3050 RMK AO2 T00181039
KLUL 161835Z AUTO 33012KT OVC023 02/M03 A3051 RMK AO2 T00241033
KLUL 161815Z AUTO 33010G19KT BKN023 OVC033 03/M03 A3052 RMK AO2 T00291027
KLUL 161755Z AUTO 35010G16KT SCT023 OVC033 04/M02 A3052 RMK AO2 T00351023
KLUL 161735Z AUTO 34010G15KT OVC033 03/M03 A3053 RMK AO2 T00321027
KLUL 161715Z AUTO 34009KT OVC035 03/M03 A3054 RMK AO2 T00301028
KLUL 161655Z AUTO 36009G14KT OVC035 03/M03 A3055 RMK AO2 T00321027
KLUL 161635Z AUTO 01011KT SCT018 OVC033 04/M02 A3054 RMK AO2 T00351021
KLUL 161615Z AUTO 34010KT 10SM BKN018 OVC033 03/M02 A3054 RMK AO2 T00301017
KLUL 161555Z AUTO 36009KT 10SM OVC016 03/M02 A3054 RMK AO2 T00261016
KLUL 161535Z AUTO 36007KT 10SM OVC016 02/M01 A3053 RMK AO2 T00231009
KLUL 161515Z AUTO 01010G15KT 10SM OVC014 02/M01 A3054 RMK AO2 T00211008
KLUL 161455Z AUTO 35011G15KT 10SM OVC014 02/M01 A3052 RMK AO2 T00171006
KLUL 161435Z AUTO 36010G17KT 10SM BKN014 01/M01 A3052 RMK AO2 T00131010
KLUL 161415Z AUTO 35008KT 320V020 10SM CLR 01/M01 A3050 RMK AO2 T00111012